createdAt,value
2018-03-26T00:00:39.151Z,94.70
2018-03-26T00:01:39.150Z,95.46
2018-03-26T00:02:39.117Z,94.98
2018-03-26T00:03:39.097Z,95.12
2018-03-26T00:04:39.081Z,95.36
2018-03-26T00:05:39.112Z,94.79
2018-03-26T00:06:39.041Z,95.56
2018-03-26T00:07:39.018Z,94.98
2018-03-26T00:08:39.002Z,95.51
2018-03-26T00:09:38.981Z,95.22
2018-03-26T00:10:38.961Z,95.70
2018-03-26T00:11:38.950Z,95.51
2018-03-26T00:12:38.933Z,95.51
2018-03-26T00:13:38.909Z,95.41
2018-03-26T00:14:38.889Z,95.79
2018-03-26T00:15:38.873Z,95.51
2018-03-26T00:16:38.859Z,95.89
2018-03-26T00:17:38.839Z,95.70
2018-03-26T00:18:38.816Z,95.51
2018-03-26T00:19:38.798Z,95.41
2018-03-26T00:20:38.788Z,96.17
2018-03-26T00:21:38.759Z,96.46
2018-03-26T00:22:38.736Z,96.46
2018-03-26T00:23:38.724Z,96.55
2018-03-26T00:24:38.699Z,96.26
2018-03-26T00:25:38.682Z,95.22
2018-03-26T00:26:38.661Z,95.51
2018-03-26T00:27:38.655Z,95.79
2018-03-26T00:28:38.626Z,96.17
2018-03-26T00:29:38.609Z,96.46
2018-03-26T00:30:38.590Z,96.46
2018-03-26T00:31:38.582Z,96.26
2018-03-26T00:32:38.557Z,96.26
2018-03-26T00:33:38.532Z,96.65
2018-03-26T00:34:38.521Z,96.74
2018-03-26T00:35:38.491Z,96.65
2018-03-26T00:36:38.485Z,97.03
2018-03-26T00:37:38.461Z,96.89
2018-03-26T00:38:38.439Z,96.98
2018-03-26T00:39:38.416Z,96.74
2018-03-26T00:40:38.399Z,97.13
2018-03-26T00:41:38.381Z,96.55
2018-03-26T00:42:38.359Z,96.65
2018-03-26T00:43:38.344Z,96.31
2018-03-26T00:44:38.320Z,96.12
2018-03-26T00:45:38.305Z,96.41
2018-03-26T00:46:38.279Z,96.98
2018-03-26T00:47:38.261Z,97.08
2018-03-26T00:48:38.244Z,96.98
2018-03-26T00:49:38.223Z,96.98
2018-03-26T00:50:38.211Z,97.36
2018-03-26T00:51:38.185Z,96.89
2018-03-26T00:52:38.170Z,96.79
2018-03-26T00:53:38.148Z,96.98
2018-03-26T00:54:38.128Z,96.89
2018-03-26T00:55:38.109Z,96.89
2018-03-26T00:56:38.090Z,96.41
2018-03-26T00:57:38.073Z,96.98
2018-03-26T00:58:38.059Z,96.98
2018-03-26T00:59:38.039Z,96.79
2018-03-26T01:00:38.018Z,97.08
2018-03-26T01:01:37.995Z,96.79
2018-03-26T01:02:37.981Z,97.17
2018-03-26T01:03:37.960Z,97.17
2018-03-26T01:04:37.941Z,96.89
2018-03-26T01:05:37.921Z,96.98
2018-03-26T01:06:37.903Z,96.89
2018-03-26T01:07:37.877Z,97.08
2018-03-26T01:08:37.860Z,97.08
2018-03-26T01:09:37.838Z,96.79
2018-03-26T01:10:37.818Z,96.31
2018-03-26T01:11:37.809Z,96.41
2018-03-26T01:12:37.792Z,96.50
2018-03-26T01:13:37.769Z,96.22
2018-03-26T01:14:37.744Z,96.79
2018-03-26T01:15:37.726Z,96.79
2018-03-26T01:16:37.709Z,96.79
2018-03-26T01:17:37.684Z,97.17
2018-03-26T01:18:37.669Z,96.98
2018-03-26T01:19:37.650Z,96.98
2018-03-26T01:20:37.775Z,96.89
2018-03-26T01:21:37.610Z,96.89
2018-03-26T01:22:37.587Z,96.41
2018-03-26T01:23:37.570Z,96.50
2018-03-26T01:24:37.549Z,96.22
2018-03-26T01:25:37.530Z,96.79
2018-03-26T01:26:37.517Z,96.69
2018-03-26T01:27:37.496Z,96.60
2018-03-26T01:28:37.481Z,96.50
2018-03-26T01:29:37.458Z,96.31
2018-03-26T01:30:37.441Z,96.22
2018-03-26T01:31:37.420Z,96.41
2018-03-26T01:32:37.397Z,96.12
2018-03-26T01:33:37.378Z,96.12
2018-03-26T01:34:37.360Z,96.60
2018-03-26T01:35:37.345Z,96.41
2018-03-26T01:36:37.321Z,96.50
2018-03-26T01:37:37.300Z,96.89
2018-03-26T01:38:37.280Z,96.89
2018-03-26T01:39:37.259Z,96.31
2018-03-26T01:40:37.240Z,96.79
2018-03-26T01:41:37.231Z,96.50
2018-03-26T01:42:37.211Z,96.12
2018-03-26T01:43:37.191Z,96.12
2018-03-26T01:44:37.164Z,96.69
2018-03-26T01:45:37.147Z,96.31
2018-03-26T01:46:37.129Z,96.60
2018-03-26T01:47:37.106Z,96.12
2018-03-26T01:48:37.088Z,96.12
2018-03-26T01:49:37.067Z,96.41
2018-03-26T01:50:37.049Z,96.41
2018-03-26T01:51:37.028Z,96.31
2018-03-26T01:52:37.010Z,96.31
2018-03-26T01:53:36.994Z,96.50
2018-03-26T01:54:36.977Z,96.22
2018-03-26T01:55:36.955Z,96.22
2018-03-26T01:56:36.935Z,96.98
2018-03-26T01:57:36.913Z,96.98
2018-03-26T01:58:36.893Z,96.60
2018-03-26T01:59:36.876Z,96.98
2018-03-26T02:00:36.859Z,96.60
2018-03-26T02:01:36.840Z,96.41
2018-03-26T02:02:36.818Z,96.22
2018-03-26T02:03:36.800Z,96.79
2018-03-26T02:04:36.779Z,96.69
2018-03-26T02:05:36.762Z,96.50
2018-03-26T02:06:36.738Z,96.41
2018-03-26T02:07:36.719Z,96.41
2018-03-26T02:08:36.704Z,96.41
2018-03-26T02:09:36.687Z,96.41
2018-03-26T02:10:36.669Z,96.41
2018-03-26T02:11:36.646Z,96.41
2018-03-26T02:12:36.627Z,96.41
2018-03-26T02:13:36.615Z,96.41
2018-03-26T02:14:36.590Z,96.31
2018-03-26T02:15:36.567Z,96.89
2018-03-26T02:16:36.549Z,96.79
2018-03-26T02:17:36.529Z,96.79
2018-03-26T02:18:36.509Z,96.89
2018-03-26T02:19:36.489Z,96.79
2018-03-26T02:20:36.472Z,96.60
2018-03-26T02:21:36.450Z,96.89
2018-03-26T02:22:36.430Z,96.98
2018-03-26T02:23:36.419Z,96.89
2018-03-26T02:24:36.400Z,96.98
2018-03-26T02:25:36.380Z,97.55
2018-03-26T02:26:36.378Z,97.64
2018-03-26T02:27:36.335Z,97.69
2018-03-26T02:28:36.319Z,97.69
2018-03-26T02:29:36.295Z,97.74
2018-03-26T02:30:36.281Z,97.27
2018-03-26T02:31:36.279Z,97.41
2018-03-26T02:32:36.241Z,97.27
2018-03-26T02:33:36.221Z,97.22
2018-03-26T02:34:36.199Z,97.31
2018-03-26T02:35:36.184Z,97.03
2018-03-26T02:36:36.162Z,97.41
2018-03-26T02:37:36.141Z,97.97
2018-03-26T02:38:36.122Z,97.78
2018-03-26T02:39:36.101Z,97.69
2018-03-26T02:40:36.086Z,97.78
2018-03-26T02:41:36.075Z,97.97
2018-03-26T02:42:36.045Z,98.26
2018-03-26T02:43:36.032Z,98.17
2018-03-26T02:44:36.010Z,98.36
2018-03-26T02:45:35.990Z,98.26
2018-03-26T02:46:35.967Z,97.69
2018-03-26T02:47:35.948Z,97.78
2018-03-26T02:48:35.932Z,97.69
2018-03-26T02:49:35.912Z,97.60
2018-03-26T02:50:35.887Z,97.60
2018-03-26T02:51:35.870Z,98.17
2018-03-26T02:52:35.848Z,98.17
2018-03-26T02:53:35.827Z,98.07
2018-03-26T02:54:35.808Z,98.26
2018-03-26T02:55:35.789Z,98.26
2018-03-26T02:56:35.769Z,97.69
2018-03-26T02:57:35.751Z,98.36
2018-03-26T02:58:35.729Z,98.07
2018-03-26T02:59:35.711Z,97.88
2018-03-26T03:00:35.695Z,97.97
2018-03-26T03:01:35.678Z,98.17
2018-03-26T03:02:35.663Z,98.64
2018-03-26T03:03:35.639Z,98.74
2018-03-26T03:04:35.615Z,98.74
2018-03-26T03:05:35.599Z,98.74
2018-03-26T03:06:35.582Z,98.45
2018-03-26T03:07:35.556Z,98.74
2018-03-26T03:08:35.543Z,98.64
2018-03-26T03:09:35.515Z,98.64
2018-03-26T03:10:35.549Z,98.55
2018-03-26T03:11:35.476Z,98.93
2018-03-26T03:12:35.455Z,98.64
2018-03-26T03:13:35.436Z,99.30
2018-03-26T03:14:35.418Z,98.64
2018-03-26T03:15:35.396Z,98.64
2018-03-26T03:16:35.380Z,98.74
2018-03-26T03:17:35.363Z,98.93
2018-03-26T03:18:35.342Z,98.26
2018-03-26T03:19:35.316Z,98.36
2018-03-26T03:20:35.300Z,98.93
2018-03-26T03:21:35.280Z,98.83
2018-03-26T03:22:35.295Z,98.64
2018-03-26T03:23:35.239Z,99.11
2018-03-26T03:24:35.220Z,99.30
2018-03-26T03:25:35.210Z,99.59
2018-03-26T03:26:35.182Z,99.64
2018-03-26T03:27:35.160Z,99.59
2018-03-26T03:28:35.139Z,99.69
2018-03-26T03:29:35.120Z,99.59
2018-03-26T03:30:35.101Z,99.78
2018-03-26T03:31:35.093Z,99.50
2018-03-26T03:32:35.066Z,99.59
2018-03-26T03:33:35.042Z,99.78
2018-03-26T03:34:35.022Z,99.78
2018-03-26T03:35:35.010Z,99.40
2018-03-26T03:36:35.007Z,99.50
2018-03-26T03:37:34.963Z,99.73
2018-03-26T03:38:34.945Z,99.40
2018-03-26T03:39:34.924Z,99.69
2018-03-26T03:40:34.906Z,99.78
2018-03-26T03:41:34.890Z,99.50
2018-03-26T03:42:34.871Z,99.50
2018-03-26T03:43:34.851Z,99.40
2018-03-26T03:44:34.822Z,99.78
2018-03-26T03:45:34.807Z,99.59
2018-03-26T03:46:34.792Z,99.35
2018-03-26T03:47:34.773Z,99.83
2018-03-26T03:48:34.760Z,99.92
2018-03-26T03:49:34.723Z,99.99
2018-03-26T03:50:34.704Z,99.99
2018-03-26T03:51:34.685Z,99.99
2018-03-26T03:52:34.669Z,99.73
2018-03-26T03:53:34.645Z,99.92
2018-03-26T03:54:34.628Z,99.92
2018-03-26T03:55:34.604Z,99.99
2018-03-26T03:56:34.588Z,99.99
2018-03-26T03:57:34.570Z,99.83
2018-03-26T03:58:34.550Z,99.99
2018-03-26T03:59:34.529Z,99.99
2018-03-26T04:00:34.505Z,99.99
2018-03-26T04:01:34.501Z,99.99
2018-03-26T04:02:34.466Z,99.99
2018-03-26T04:03:34.444Z,99.99
2018-03-26T04:04:34.424Z,99.99
2018-03-26T04:05:34.408Z,99.99
2018-03-26T04:06:34.388Z,99.99
2018-03-26T04:07:34.365Z,99.99
2018-03-26T04:08:34.344Z,99.99
2018-03-26T04:09:34.324Z,99.99
2018-03-26T04:10:34.309Z,99.99
2018-03-26T04:11:34.291Z,99.99
2018-03-26T04:12:34.271Z,99.99
2018-03-26T04:13:34.250Z,99.99
2018-03-26T04:14:34.228Z,99.99
2018-03-26T04:15:34.208Z,99.99
2018-03-26T04:16:34.189Z,99.99
2018-03-26T04:17:34.165Z,99.99
2018-03-26T04:18:34.152Z,99.99
2018-03-26T04:19:34.127Z,99.99
2018-03-26T04:20:34.113Z,99.99
2018-03-26T04:21:34.088Z,99.99
2018-03-26T04:22:34.071Z,99.99
2018-03-26T04:23:34.050Z,99.99
2018-03-26T04:24:34.025Z,99.99
2018-03-26T04:25:34.016Z,99.99
2018-03-26T04:26:33.986Z,99.99
2018-03-26T04:27:33.969Z,99.99
2018-03-26T04:28:33.952Z,99.99
2018-03-26T04:29:33.924Z,99.99
2018-03-26T04:30:33.910Z,99.99
2018-03-26T04:31:33.887Z,99.99
2018-03-26T04:32:33.871Z,99.99
2018-03-26T04:33:33.851Z,99.99
2018-03-26T04:34:33.831Z,99.99
2018-03-26T04:35:33.811Z,99.99
2018-03-26T04:36:33.791Z,99.99
2018-03-26T04:37:33.850Z,99.99
2018-03-26T04:38:33.747Z,99.99
2018-03-26T04:39:33.726Z,99.99
2018-03-26T04:40:33.709Z,99.99
2018-03-26T04:41:33.690Z,99.99
2018-03-26T04:42:33.672Z,99.99
2018-03-26T04:43:33.651Z,99.99
2018-03-26T04:44:33.626Z,99.99
2018-03-26T04:45:33.609Z,99.92
2018-03-26T04:46:33.590Z,99.92
2018-03-26T04:47:33.564Z,99.99
2018-03-26T04:48:33.553Z,99.40
2018-03-26T04:49:33.538Z,99.69
2018-03-26T04:50:33.517Z,99.50
2018-03-26T04:51:33.483Z,98.93
2018-03-26T04:52:33.469Z,99.69
2018-03-26T04:53:33.453Z,99.50
2018-03-26T04:54:33.430Z,99.30
2018-03-26T04:55:33.405Z,99.44
2018-03-26T04:56:33.390Z,99.44
2018-03-26T04:57:33.381Z,99.64
2018-03-26T04:58:33.350Z,99.44
2018-03-26T04:59:33.326Z,99.44
2018-03-26T05:00:33.305Z,99.35
2018-03-26T05:01:33.290Z,99.64
2018-03-26T05:02:33.270Z,99.54
2018-03-26T05:03:33.251Z,99.73
2018-03-26T05:04:33.230Z,99.54
2018-03-26T05:05:33.211Z,99.92
2018-03-26T05:06:33.190Z,99.83
2018-03-26T05:07:33.174Z,99.99
2018-03-26T05:08:33.150Z,99.99
2018-03-26T05:09:33.129Z,99.26
2018-03-26T05:10:33.105Z,99.64
2018-03-26T05:11:33.098Z,99.64
2018-03-26T05:12:33.062Z,99.99
2018-03-26T05:13:33.041Z,99.73
2018-03-26T05:14:33.024Z,99.64
2018-03-26T05:15:33.004Z,99.26
2018-03-26T05:16:32.983Z,99.64
2018-03-26T05:17:32.962Z,99.83
2018-03-26T05:18:32.948Z,99.73
2018-03-26T05:19:32.929Z,99.54
2018-03-26T05:20:32.911Z,99.64
2018-03-26T05:21:32.879Z,99.44
2018-03-26T05:22:32.858Z,99.64
2018-03-26T05:23:32.850Z,99.83
2018-03-26T05:24:32.823Z,99.83
2018-03-26T05:25:32.801Z,99.73
2018-03-26T05:26:33.060Z,99.92
2018-03-26T05:27:32.762Z,99.92
2018-03-26T05:28:32.739Z,99.44
2018-03-26T05:29:32.719Z,99.35
2018-03-26T05:30:32.702Z,99.35
2018-03-26T05:31:32.680Z,99.64
2018-03-26T05:32:32.661Z,99.16
2018-03-26T05:33:32.646Z,98.79
2018-03-26T05:34:32.620Z,98.88
2018-03-26T05:35:32.603Z,98.74
2018-03-26T05:36:32.580Z,98.26
2018-03-26T05:37:32.560Z,98.07
2018-03-26T05:38:32.541Z,98.07
2018-03-26T05:39:32.521Z,98.17
2018-03-26T05:40:32.561Z,97.69
2018-03-26T05:41:32.484Z,97.83
2018-03-26T05:42:32.461Z,97.64
2018-03-26T05:43:32.442Z,98.02
2018-03-26T05:44:32.418Z,98.40
2018-03-26T05:45:32.404Z,97.45
2018-03-26T05:46:32.380Z,98.12
2018-03-26T05:47:32.373Z,98.40
2018-03-26T05:48:32.346Z,98.12
2018-03-26T05:49:32.320Z,98.40
2018-03-26T05:50:32.301Z,97.55
2018-03-26T05:51:32.282Z,97.74
2018-03-26T05:52:32.271Z,97.27
2018-03-26T05:53:32.236Z,98.02
2018-03-26T05:54:32.220Z,98.40
2018-03-26T05:55:32.199Z,98.12
2018-03-26T05:56:32.182Z,98.21
2018-03-26T05:57:32.159Z,98.21
2018-03-26T05:58:32.143Z,97.92
2018-03-26T05:59:32.120Z,98.21
2018-03-26T06:00:32.100Z,98.02
2018-03-26T06:01:32.080Z,97.27
2018-03-26T06:02:32.064Z,98.21
2018-03-26T06:03:32.040Z,97.83
2018-03-26T06:04:32.021Z,98.21
2018-03-26T06:05:31.998Z,97.83
2018-03-26T06:06:31.979Z,97.92
2018-03-26T06:07:31.959Z,97.55
2018-03-26T06:08:31.938Z,97.64
2018-03-26T06:09:31.921Z,97.83
2018-03-26T06:10:31.900Z,97.17
2018-03-26T06:11:31.880Z,97.17
2018-03-26T06:12:31.858Z,97.36
2018-03-26T06:13:31.838Z,97.45
2018-03-26T06:14:31.818Z,96.69
2018-03-26T06:15:31.826Z,96.79
2018-03-26T06:16:31.779Z,96.88
2018-03-26T06:17:31.759Z,96.69
2018-03-26T06:18:31.736Z,96.60
2018-03-26T06:19:31.719Z,97.45
2018-03-26T06:20:31.699Z,97.36
2018-03-26T06:21:31.676Z,97.07
2018-03-26T06:22:31.660Z,97.36
2018-03-26T06:23:31.639Z,97.74
2018-03-26T06:24:31.620Z,97.74
2018-03-26T06:25:31.599Z,97.83
2018-03-26T06:26:31.585Z,98.21
2018-03-26T06:27:31.557Z,98.07
2018-03-26T06:28:31.539Z,97.97
2018-03-26T06:29:31.519Z,97.60
2018-03-26T06:30:31.535Z,98.02
2018-03-26T06:31:31.482Z,98.12
2018-03-26T06:32:31.459Z,98.21
2018-03-26T06:33:31.440Z,97.74
2018-03-26T06:34:31.421Z,98.12
2018-03-26T06:35:31.397Z,97.74
2018-03-26T06:36:31.381Z,98.40
2018-03-26T06:37:31.368Z,97.74
2018-03-26T06:38:31.341Z,97.74
2018-03-26T06:39:31.318Z,97.92
2018-03-26T06:40:31.301Z,97.45
2018-03-26T06:41:31.277Z,96.60
2018-03-26T06:42:31.261Z,97.07
2018-03-26T06:43:31.243Z,97.07
2018-03-26T06:44:31.227Z,97.07
2018-03-26T06:45:31.205Z,96.69
2018-03-26T06:46:31.184Z,96.88
2018-03-26T06:47:31.297Z,96.41
2018-03-26T06:48:31.141Z,96.08
2018-03-26T06:49:31.120Z,96.65
2018-03-26T06:50:31.098Z,95.75
2018-03-26T06:51:31.079Z,96.31
2018-03-26T06:52:31.060Z,96.50
2018-03-26T06:53:31.040Z,96.88
2018-03-26T06:54:31.030Z,96.88
2018-03-26T06:55:31.002Z,96.60
2018-03-26T06:56:30.986Z,96.08
2018-03-26T06:57:30.963Z,96.50
2018-03-26T06:58:30.945Z,96.26
2018-03-26T06:59:30.929Z,96.36
2018-03-26T07:00:30.907Z,95.89
2018-03-26T07:01:30.883Z,95.60
2018-03-26T07:02:30.870Z,95.12
2018-03-26T07:03:30.848Z,95.32
2018-03-26T07:04:30.827Z,95.08
2018-03-26T07:05:30.810Z,94.32
2018-03-26T07:06:30.802Z,93.55
2018-03-26T07:07:30.781Z,93.84
2018-03-26T07:08:30.756Z,93.08
2018-03-26T07:09:30.736Z,93.27
2018-03-26T07:10:30.718Z,93.37
2018-03-26T07:11:30.694Z,93.65
2018-03-26T07:12:30.757Z,93.65
2018-03-26T07:13:30.657Z,93.04
2018-03-26T07:14:30.639Z,91.80
2018-03-26T07:15:30.626Z,91.80
2018-03-26T07:16:30.606Z,91.84
2018-03-26T07:17:30.601Z,90.70
2018-03-26T07:18:30.572Z,89.65
2018-03-26T07:19:30.552Z,89.65
2018-03-26T07:20:30.537Z,88.75
2018-03-26T07:21:30.526Z,87.60
2018-03-26T07:22:30.508Z,87.32
2018-03-26T07:23:30.492Z,87.08
2018-03-26T07:24:30.480Z,88.23
2018-03-26T07:25:30.468Z,89.80
2018-03-26T07:26:30.448Z,90.28
2018-03-26T07:27:30.433Z,89.89
2018-03-26T07:28:30.418Z,89.61
2018-03-26T07:29:30.412Z,88.60
2018-03-26T07:30:30.389Z,86.26
2018-03-26T07:31:30.383Z,83.54
2018-03-26T07:32:30.366Z,80.96
2018-03-26T07:33:30.348Z,79.96
2018-03-26T07:34:30.339Z,76.37
2018-03-26T07:35:30.335Z,72.01
2018-03-26T07:36:30.321Z,70.10
2018-03-26T07:37:30.316Z,68.61
2018-03-26T07:38:30.299Z,64.88
2018-03-26T07:39:30.296Z,63.39
2018-03-26T07:40:30.288Z,61.31
2018-03-26T07:41:30.282Z,59.72
2018-03-26T07:42:30.270Z,57.16
2018-03-26T07:43:30.267Z,56.59
2018-03-26T07:44:30.260Z,56.39
2018-03-26T07:45:30.251Z,55.91
2018-03-26T07:46:30.248Z,54.24
2018-03-26T07:47:30.235Z,53.09
2018-03-26T07:48:30.232Z,52.36
2018-03-26T07:49:30.227Z,51.04
2018-03-26T07:50:30.225Z,49.21
2018-03-26T07:51:30.222Z,48.85
2018-03-26T07:52:30.211Z,47.82
2018-03-26T07:53:30.209Z,47.63
2018-03-26T07:54:30.209Z,46.21
2018-03-26T07:55:30.200Z,45.85
2018-03-26T07:56:30.300Z,45.47
2018-03-26T07:57:30.190Z,44.22
2018-03-26T07:58:30.248Z,44.24
2018-03-26T07:59:30.190Z,42.91
2018-03-26T08:00:30.187Z,42.72
2018-03-26T08:01:30.184Z,41.86
2018-03-26T08:02:30.189Z,41.47
2018-03-26T08:03:30.186Z,41.66
2018-03-26T08:04:30.180Z,41.30
2018-03-26T08:05:30.179Z,40.63
2018-03-26T08:06:30.190Z,40.53
2018-03-26T08:07:30.177Z,40.63
2018-03-26T08:08:30.178Z,40.31
2018-03-26T08:09:30.180Z,40.14
2018-03-26T08:10:30.184Z,39.95
2018-03-26T08:11:30.184Z,39.93
2018-03-26T08:12:30.171Z,40.31
2018-03-26T08:13:30.171Z,40.63
2018-03-26T08:14:30.170Z,39.59
2018-03-26T08:15:30.173Z,39.01
2018-03-26T08:16:30.170Z,38.54
2018-03-26T08:17:30.172Z,37.58
2018-03-26T08:18:30.173Z,37.29
2018-03-26T08:19:30.175Z,37.60
2018-03-26T08:20:30.179Z,36.81
2018-03-26T08:21:30.184Z,36.35
2018-03-26T08:22:30.171Z,36.54
2018-03-26T08:23:30.276Z,36.33
2018-03-26T08:24:30.180Z,36.91
2018-03-26T08:25:30.284Z,36.36
2018-03-26T08:26:30.180Z,35.88
2018-03-26T08:27:30.183Z,35.30
2018-03-26T08:28:30.180Z,35.11
2018-03-26T08:29:30.233Z,35.28
2018-03-26T08:30:30.183Z,36.02
2018-03-26T08:31:30.190Z,36.89
2018-03-26T08:32:30.190Z,36.91
2018-03-26T08:33:30.184Z,36.83
2018-03-26T08:34:30.187Z,36.36
2018-03-26T08:35:30.187Z,35.88
2018-03-26T08:36:30.248Z,34.80
2018-03-26T08:37:30.189Z,35.21
2018-03-26T08:38:30.190Z,34.61
2018-03-26T08:39:30.195Z,35.58
2018-03-26T08:40:30.194Z,36.31
2018-03-26T08:41:30.196Z,36.81
2018-03-26T08:42:30.290Z,36.61
2018-03-26T08:43:30.204Z,36.33
2018-03-26T08:44:30.351Z,36.23
2018-03-26T08:45:30.202Z,36.35
2018-03-26T08:46:30.311Z,35.86
2018-03-26T08:47:30.203Z,35.77
2018-03-26T08:48:30.211Z,35.65
2018-03-26T08:49:30.205Z,35.36
2018-03-26T08:50:30.253Z,35.38
2018-03-26T08:51:30.208Z,35.67
2018-03-26T08:52:30.214Z,35.00
2018-03-26T08:53:30.227Z,35.19
2018-03-26T08:54:30.210Z,34.80
2018-03-26T08:55:30.210Z,34.63
2018-03-26T08:56:30.221Z,34.55
2018-03-26T08:57:30.222Z,34.44
2018-03-26T08:58:30.222Z,34.05
2018-03-26T08:59:30.224Z,33.20
2018-03-26T09:00:30.223Z,33.20
2018-03-26T09:01:30.221Z,32.54
2018-03-26T09:02:30.223Z,32.15
2018-03-26T09:03:30.231Z,33.02
2018-03-26T09:04:30.223Z,33.12
2018-03-26T09:05:30.225Z,32.82
2018-03-26T09:06:30.222Z,33.28
2018-03-26T09:07:30.226Z,33.97
2018-03-26T09:08:30.228Z,33.89
2018-03-26T09:09:30.228Z,33.20
2018-03-26T09:10:30.229Z,33.58
2018-03-26T09:11:30.272Z,33.00
2018-03-26T09:12:30.229Z,33.40
2018-03-26T09:13:30.229Z,33.50
2018-03-26T09:14:30.241Z,33.02
2018-03-26T09:15:30.229Z,33.12
2018-03-26T09:16:30.229Z,33.14
2018-03-26T09:17:30.285Z,32.84
2018-03-26T09:18:30.226Z,32.65
2018-03-26T09:19:30.241Z,32.24
2018-03-26T09:20:30.226Z,33.22
2018-03-26T09:21:30.225Z,33.10
2018-03-26T09:22:30.230Z,33.48
2018-03-26T09:23:30.234Z,32.91
2018-03-26T09:24:30.234Z,33.66
2018-03-26T09:25:30.222Z,34.14
2018-03-26T09:26:30.223Z,34.24
2018-03-26T09:27:30.220Z,34.06
2018-03-26T09:28:30.219Z,33.31
2018-03-26T09:29:30.214Z,33.02
2018-03-26T09:30:30.225Z,32.92
2018-03-26T09:31:30.210Z,33.02
2018-03-26T09:32:30.209Z,32.64
2018-03-26T09:33:30.210Z,32.24
2018-03-26T09:34:30.267Z,32.36
2018-03-26T09:35:30.204Z,32.73
2018-03-26T09:36:30.203Z,33.00
2018-03-26T09:37:30.200Z,33.20
2018-03-26T09:38:30.210Z,33.47
2018-03-26T09:39:30.190Z,34.44
2018-03-26T09:40:30.219Z,33.95
2018-03-26T09:41:30.190Z,33.97
2018-03-26T09:42:30.182Z,33.60
2018-03-26T09:43:30.182Z,32.91
2018-03-26T09:44:30.175Z,33.29
2018-03-26T09:45:30.173Z,33.22
2018-03-26T09:46:30.171Z,33.70
2018-03-26T09:47:30.160Z,33.00
2018-03-26T09:48:30.162Z,34.03
2018-03-26T09:49:30.152Z,34.63
2018-03-26T09:50:30.146Z,34.92
2018-03-26T09:51:30.146Z,33.97
2018-03-26T09:52:30.140Z,34.26
2018-03-26T09:53:30.175Z,34.06
2018-03-26T09:54:30.128Z,33.87
2018-03-26T09:55:30.124Z,34.34
2018-03-26T09:56:30.115Z,34.26
2018-03-26T09:57:30.110Z,34.18
2018-03-26T09:58:30.113Z,33.31
2018-03-26T09:59:30.101Z,33.39
2018-03-26T10:00:30.099Z,34.64
2018-03-26T10:01:30.089Z,34.64
2018-03-26T10:02:30.087Z,34.26
2018-03-26T10:03:30.085Z,34.36
2018-03-26T10:04:30.071Z,34.06
2018-03-26T10:05:30.088Z,34.34
2018-03-26T10:06:30.066Z,34.14
2018-03-26T10:07:30.051Z,34.53
2018-03-26T10:08:30.058Z,34.63
2018-03-26T10:09:30.041Z,35.00
2018-03-26T10:10:30.031Z,35.48
2018-03-26T10:11:30.031Z,35.58
2018-03-26T10:12:30.019Z,36.13
2018-03-26T10:13:30.012Z,36.71
2018-03-26T10:14:30.010Z,36.60
2018-03-26T10:15:30.006Z,37.37
2018-03-26T10:16:29.992Z,36.89
2018-03-26T10:17:30.001Z,38.20
2018-03-26T10:18:29.976Z,39.54
2018-03-26T10:19:29.983Z,39.93
2018-03-26T10:20:29.962Z,40.22
2018-03-26T10:21:29.951Z,39.47
2018-03-26T10:22:29.946Z,38.60
2018-03-26T10:23:29.953Z,38.70
2018-03-26T10:24:29.938Z,38.87
2018-03-26T10:25:29.920Z,39.26
2018-03-26T10:26:29.919Z,40.20
2018-03-26T10:27:29.908Z,41.16
2018-03-26T10:28:29.902Z,41.43
2018-03-26T10:29:29.890Z,42.25
2018-03-26T10:30:29.878Z,43.79
2018-03-26T10:31:29.881Z,43.81
2018-03-26T10:32:29.869Z,42.77
2018-03-26T10:33:29.859Z,42.49
2018-03-26T10:34:29.854Z,42.76
2018-03-26T10:35:29.839Z,42.85
2018-03-26T10:36:29.831Z,42.66
2018-03-26T10:37:29.820Z,42.47
2018-03-26T10:38:29.874Z,42.37
2018-03-26T10:39:29.807Z,42.47
2018-03-26T10:40:29.794Z,42.37
2018-03-26T10:41:29.790Z,41.99
2018-03-26T10:42:29.781Z,42.27
2018-03-26T10:43:29.770Z,42.37
2018-03-26T10:44:29.768Z,42.85
2018-03-26T10:45:29.760Z,42.77
2018-03-26T10:46:29.754Z,42.37
2018-03-26T10:47:29.740Z,42.76
2018-03-26T10:48:29.726Z,43.88
2018-03-26T10:49:29.725Z,43.71
2018-03-26T10:50:29.715Z,43.52
2018-03-26T10:51:29.700Z,44.34
2018-03-26T10:52:29.699Z,45.40
2018-03-26T10:53:29.683Z,45.67
2018-03-26T10:54:29.680Z,45.78
2018-03-26T10:55:29.668Z,45.21
2018-03-26T10:56:29.715Z,45.68
2018-03-26T10:57:29.651Z,45.67
2018-03-26T10:58:29.641Z,46.62
2018-03-26T10:59:29.629Z,46.65
2018-03-26T11:00:29.792Z,45.86
2018-03-26T11:01:29.616Z,44.49
2018-03-26T11:02:29.660Z,45.54
2018-03-26T11:03:29.600Z,46.12
2018-03-26T11:04:29.595Z,46.14
2018-03-26T11:05:29.628Z,45.57
2018-03-26T11:06:29.570Z,45.16
2018-03-26T11:07:29.552Z,46.14
2018-03-26T11:08:29.555Z,45.57
2018-03-26T11:09:29.584Z,45.50
2018-03-26T11:10:29.579Z,44.15
2018-03-26T11:11:29.516Z,44.42
2018-03-26T11:12:29.504Z,45.67
2018-03-26T11:13:29.510Z,46.50
2018-03-26T11:14:29.490Z,47.17
2018-03-26T11:15:29.480Z,46.89
2018-03-26T11:16:29.468Z,46.72
2018-03-26T11:17:29.450Z,46.34
2018-03-26T11:18:29.453Z,45.95
2018-03-26T11:19:29.441Z,46.70
2018-03-26T11:20:29.444Z,47.66
2018-03-26T11:21:29.420Z,47.27
2018-03-26T11:22:29.420Z,47.20
2018-03-26T11:23:29.390Z,46.74
2018-03-26T11:24:29.380Z,45.40
2018-03-26T11:25:29.371Z,45.21
2018-03-26T11:26:29.361Z,45.30
2018-03-26T11:27:29.347Z,45.40
2018-03-26T11:28:29.347Z,45.86
2018-03-26T11:29:29.334Z,46.53
2018-03-26T11:30:29.331Z,46.43
2018-03-26T11:31:29.342Z,47.51
2018-03-26T11:32:29.296Z,48.44
2018-03-26T11:33:29.286Z,50.93
2018-03-26T11:34:29.279Z,51.20
2018-03-26T11:35:29.267Z,52.15
2018-03-26T11:36:29.251Z,51.51
2018-03-26T11:37:29.240Z,50.65
2018-03-26T11:38:29.249Z,49.88
2018-03-26T11:39:29.220Z,49.31
2018-03-26T11:40:29.210Z,49.33
2018-03-26T11:41:29.206Z,48.21
2018-03-26T11:42:29.187Z,47.63
2018-03-26T11:43:29.172Z,48.57
2018-03-26T11:44:29.160Z,48.40
2018-03-26T11:45:29.316Z,47.63
2018-03-26T11:46:29.139Z,49.21
2018-03-26T11:47:29.254Z,52.47
2018-03-26T11:48:29.119Z,53.64
2018-03-26T11:49:29.214Z,51.25
2018-03-26T11:50:29.099Z,49.62
2018-03-26T11:51:29.090Z,49.07
2018-03-26T11:52:29.085Z,49.10
2018-03-26T11:53:29.076Z,48.43
2018-03-26T11:54:29.053Z,48.33
2018-03-26T11:55:29.042Z,48.61
2018-03-26T11:56:29.036Z,48.35
2018-03-26T11:57:29.023Z,47.10
2018-03-26T11:58:29.008Z,46.14
2018-03-26T11:59:29.003Z,46.05
2018-03-26T12:00:28.983Z,46.05
2018-03-26T12:01:28.973Z,46.05
2018-03-26T12:02:28.961Z,45.90
2018-03-26T12:03:28.951Z,47.06
2018-03-26T12:04:28.938Z,47.63
2018-03-26T12:05:28.935Z,48.02
2018-03-26T12:06:28.920Z,47.68
2018-03-26T12:07:28.906Z,46.53
2018-03-26T12:08:28.904Z,45.59
2018-03-26T12:09:28.890Z,45.28
2018-03-26T12:10:28.875Z,45.11
2018-03-26T12:11:28.862Z,44.24
2018-03-26T12:12:28.853Z,43.96
2018-03-26T12:13:28.838Z,43.48
2018-03-26T12:14:28.834Z,43.96
2018-03-26T12:15:28.821Z,44.15
2018-03-26T12:16:28.817Z,45.11
2018-03-26T12:17:28.804Z,45.14
2018-03-26T12:18:28.803Z,44.42
2018-03-26T12:19:28.778Z,45.18
2018-03-26T12:20:28.772Z,45.57
2018-03-26T12:21:28.754Z,46.31
2018-03-26T12:22:28.746Z,47.44
2018-03-26T12:23:28.731Z,48.21
2018-03-26T12:24:28.735Z,49.33
2018-03-26T12:25:28.717Z,49.33
2018-03-26T12:26:28.703Z,49.36
2018-03-26T12:27:28.686Z,48.61
2018-03-26T12:28:28.678Z,47.46
2018-03-26T12:29:28.671Z,48.13
2018-03-26T12:30:28.658Z,46.81
2018-03-26T12:31:28.639Z,46.62
2018-03-26T12:32:28.661Z,46.34
2018-03-26T12:33:28.619Z,46.72
2018-03-26T12:34:28.610Z,46.17
2018-03-26T12:35:28.599Z,45.64
2018-03-26T12:36:28.597Z,46.41
2018-03-26T12:37:28.575Z,45.74
2018-03-26T12:38:28.580Z,46.05
2018-03-26T12:39:28.563Z,45.67
2018-03-26T12:40:28.548Z,45.36
2018-03-26T12:41:28.535Z,46.00
2018-03-26T12:42:28.527Z,47.03
2018-03-26T12:43:28.522Z,47.63
2018-03-26T12:44:28.499Z,47.17
2018-03-26T12:45:28.498Z,46.58
2018-03-26T12:46:28.483Z,46.60
2018-03-26T12:47:28.471Z,45.62
2018-03-26T12:48:28.459Z,46.70
2018-03-26T12:49:28.455Z,46.62
2018-03-26T12:50:28.441Z,45.54
2018-03-26T12:51:28.432Z,43.84
2018-03-26T12:52:28.421Z,44.15